Time;durP1;ratioP1;P1;durP2;ratioP2;P2;SDS_P1;SDS_P2;PMS_P1;PMS_P2;Temp;Humidity;BMP_temperature;BMP_pressure;BME280_temperature;BME280_humidity;BME280_pressure;Samples;Min_cycle;Max_cycle;Signal;HPM_P1;HPM_P2
2022/07/30 00:01:34;;;;;;;6.20;4.53;;;18.30;99.90;;;;;;5049219;28;20423;-70
2022/07/30 00:04:02;;;;;;;9.87;4.53;;;18.30;99.90;;;;;;5048356;28;20456;-70
2022/07/30 00:06:28;;;;;;;4.60;4.20;;;18.30;99.90;;;;;;5050760;28;20445;-70
2022/07/30 00:08:55;;;;;;;7.33;4.53;;;18.30;99.90;;;;;;5051088;28;20452;-70
2022/07/30 00:11:21;;;;;;;5.13;4.63;;;18.30;99.90;;;;;;5050953;28;20967;-70
2022/07/30 00:13:48;;;;;;;4.47;4.07;;;18.30;99.90;;;;;;5051174;28;20468;-70
2022/07/30 00:16:15;;;;;;;4.63;4.00;;;18.30;99.90;;;;;;5049604;28;21077;-70
2022/07/30 00:18:41;;;;;;;8.40;4.57;;;18.20;99.90;;;;;;5049738;28;20464;-70
2022/07/30 00:21:09;;;;;;;7.87;4.80;;;18.20;99.90;;;;;;5050313;28;20423;-70
2022/07/30 00:23:36;;;;;;;5.13;4.23;;;18.20;99.90;;;;;;5050076;28;20448;-70
2022/07/30 00:26:03;;;;;;;4.83;4.23;;;18.10;99.90;;;;;;5049770;28;20502;-70
2022/07/30 00:28:29;;;;;;;5.77;5.17;;;18.10;99.90;;;;;;5049604;28;20489;-70
2022/07/30 00:30:56;;;;;;;4.67;3.93;;;18.10;99.90;;;;;;5048070;28;20530;-70
2022/07/30 00:33:23;;;;;;;5.63;4.53;;;18.10;99.90;;;;;;5049267;28;20510;-70
2022/07/30 00:35:49;;;;;;;6.20;5.13;;;18.10;99.90;;;;;;5048645;28;20487;-70
2022/07/30 00:38:17;;;;;;;6.43;4.83;;;18.00;99.90;;;;;;5048934;28;20468;-70
2022/07/30 00:40:46;;;;;;;6.50;4.30;;;18.00;99.90;;;;;;5048681;28;20424;-70
2022/07/30 00:43:15;;;;;;;5.13;4.63;;;18.00;99.90;;;;;;5049575;28;20448;-70
2022/07/30 00:45:41;;;;;;;5.90;4.60;;;17.90;99.90;;;;;;5048611;28;20502;-70
2022/07/30 00:48:08;;;;;;;6.00;4.83;;;17.90;99.90;;;;;;5048228;28;20497;-70
2022/07/30 00:50:35;;;;;;;5.17;4.67;;;17.90;99.90;;;;;;5049378;28;20419;-70
2022/07/30 00:53:01;;;;;;;5.60;5.10;;;17.90;99.90;;;;;;5049137;28;20469;-70
2022/07/30 00:55:30;;;;;;;5.70;3.90;;;17.90;99.90;;;;;;5048765;28;20423;-71
2022/07/30 00:57:57;;;;;;;5.20;4.70;;;17.90;99.90;;;;;;5048738;28;20450;-71
2022/07/30 01:00:24;;;;;;;6.00;4.77;;;17.80;99.90;;;;;;5049295;28;20423;-71
2022/07/30 01:02:51;;;;;;;6.70;4.80;;;17.90;99.90;;;;;;5048182;28;20423;-70
2022/07/30 01:05:18;;;;;;;7.07;5.47;;;17.80;99.90;;;;;;5049884;28;20423;-70
2022/07/30 01:07:45;;;;;;;6.27;5.03;;;17.80;99.90;;;;;;5050771;28;20467;-70
2022/07/30 01:10:14;;;;;;;6.17;5.10;;;17.80;99.90;;;;;;5053048;28;20496;-70
2022/07/30 01:12:43;;;;;;;8.00;5.47;;;17.70;99.90;;;;;;5052929;28;20448;-70
2022/07/30 01:15:10;;;;;;;5.23;4.73;;;17.70;99.90;;;;;;5053656;28;20526;-70
2022/07/30 01:17:38;;;;;;;6.07;5.10;;;17.60;99.90;;;;;;5051308;28;20974;-70
2022/07/30 01:20:08;;;;;;;7.43;5.57;;;17.70;99.90;;;;;;5052284;28;20922;-70
2022/07/30 01:22:45;;;;;;;7.27;5.10;;;17.60;99.90;;;;;;5053185;28;20430;-70
2022/07/30 01:25:17;;;;;;;5.83;5.33;;;17.50;99.90;;;;;;5052343;28;20492;-70
2022/07/30 01:27:49;;;;;;;9.13;5.30;;;17.50;99.90;;;;;;5052093;28;20472;-70
2022/07/30 01:30:20;;;;;;;7.17;5.13;;;17.40;99.90;;;;;;5052538;28;20419;-70
2022/07/30 01:32:47;;;;;;;6.00;5.37;;;17.40;99.90;;;;;;5052506;28;20451;-70
2022/07/30 01:35:16;;;;;;;5.20;4.80;;;17.30;99.90;;;;;;5048785;28;20791;-70
2022/07/30 01:37:46;;;;;;;6.20;4.93;;;17.20;99.90;;;;;;5052741;28;20540;-70
2022/07/30 01:40:14;;;;;;;8.37;5.00;;;17.10;99.90;;;;;;5052778;28;20476;-70
2022/07/30 01:42:43;;;;;;;5.90;5.40;;;17.00;99.90;;;;;;5051820;28;20423;-71
2022/07/30 01:45:12;;;;;;;8.67;5.57;;;16.90;99.90;;;;;;5051266;28;20431;-71
2022/07/30 01:47:41;;;;;;;7.03;5.67;;;16.80;99.90;;;;;;5051894;28;20453;-70
2022/07/30 01:50:13;;;;;;;5.83;5.33;;;16.80;99.90;;;;;;5051614;28;20444;-70
2022/07/30 01:52:42;;;;;;;6.60;5.73;;;16.70;99.90;;;;;;5051982;28;20456;-70
2022/07/30 01:55:12;;;;;;;6.03;5.53;;;16.70;99.90;;;;;;5051675;28;20858;-70
2022/07/30 01:57:39;;;;;;;6.10;5.47;;;16.60;99.90;;;;;;5052139;28;20466;-70
2022/07/30 02:00:07;;;;;;;7.53;5.33;;;16.60;99.90;;;;;;5051960;28;20504;-70
2022/07/30 02:02:37;;;;;;;8.90;6.10;;;16.60;99.90;;;;;;5051083;28;20851;-70
2022/07/30 02:05:05;;;;;;;6.93;5.30;;;16.60;99.90;;;;;;5051747;28;22089;-70
2022/07/30 02:07:37;;;;;;;8.10;5.43;;;16.60;99.90;;;;;;5052168;28;20493;-70
2022/07/30 02:10:09;;;;;;;7.20;5.03;;;16.60;99.90;;;;;;5052169;28;20533;-70
2022/07/30 02:12:40;;;;;;;5.60;5.10;;;16.60;99.90;;;;;;5051831;28;20926;-70
2022/07/30 02:15:11;;;;;;;6.70;5.50;;;16.60;99.90;;;;;;5051922;28;20456;-70
2022/07/30 02:17:43;;;;;;;7.10;6.17;;;16.60;99.90;;;;;;5050781;28;21034;-70
2022/07/30 02:20:12;;;;;;;6.00;5.40;;;16.60;99.90;;;;;;5051662;28;20452;-70
2022/07/30 02:22:42;;;;;;;6.80;5.60;;;16.60;99.90;;;;;;5052055;28;20514;-70
2022/07/30 02:25:13;;;;;;;6.80;5.80;;;16.60;99.90;;;;;;5052376;28;20464;-70
2022/07/30 02:27:41;;;;;;;7.83;5.23;;;16.60;99.90;;;;;;5052400;28;20451;-70
2022/07/30 02:30:09;;;;;;;5.57;5.03;;;16.60;99.90;;;;;;5051961;28;20431;-70
2022/07/30 02:32:42;;;;;;;6.37;5.70;;;16.60;99.90;;;;;;5052021;28;20539;-70
2022/07/30 02:35:14;;;;;;;6.03;5.27;;;16.60;99.90;;;;;;5051351;28;20431;-70
2022/07/30 02:37:42;;;;;;;5.40;5.00;;;16.50;99.90;;;;;;5051552;28;20463;-71
2022/07/30 02:40:10;;;;;;;5.87;5.27;;;16.50;99.90;;;;;;5051471;28;20522;-70
2022/07/30 02:42:38;;;;;;;9.57;5.13;;;16.40;99.90;;;;;;5051670;28;20956;-70
2022/07/30 02:45:06;;;;;;;6.23;5.47;;;16.40;99.90;;;;;;5050732;28;20819;-70
2022/07/30 02:47:36;;;;;;;7.23;6.30;;;16.40;99.90;;;;;;5050476;28;20460;-71
2022/07/30 02:50:06;;;;;;;5.50;5.00;;;16.30;99.90;;;;;;5051131;28;20431;-70
2022/07/30 02:52:34;;;;;;;7.17;5.30;;;16.30;99.90;;;;;;5051478;28;20431;-70
2022/07/30 02:55:02;;;;;;;6.50;5.77;;;16.30;99.90;;;;;;5050145;28;20996;-70
2022/07/30 02:57:31;;;;;;;5.67;5.17;;;16.30;99.90;;;;;;5050621;28;20573;-70
2022/07/30 02:59:59;;;;;;;7.90;6.10;;;16.30;99.90;;;;;;5050562;28;20823;-70
2022/07/30 03:02:27;;;;;;;6.83;5.80;;;16.20;99.90;;;;;;5049800;28;20448;-70
2022/07/30 03:04:56;;;;;;;8.30;5.60;;;16.30;99.90;;;;;;5051375;28;20419;-70
2022/07/30 03:07:26;;;;;;;8.20;5.73;;;16.30;99.90;;;;;;5051230;28;20440;-70
2022/07/30 03:09:55;;;;;;;5.93;5.30;;;16.30;99.90;;;;;;5051404;28;20510;-70
2022/07/30 03:12:23;;;;;;;7.60;5.50;;;16.30;99.90;;;;;;5051173;28;20473;-70
2022/07/30 03:14:51;;;;;;;5.87;5.33;;;16.30;99.90;;;;;;5051352;28;20430;-70
2022/07/30 03:17:19;;;;;;;8.03;6.50;;;16.30;99.90;;;;;;5050298;28;20495;-71
2022/07/30 03:19:48;;;;;;;7.30;5.40;;;16.30;99.90;;;;;;5050539;28;20420;-71
2022/07/30 03:22:17;;;;;;;5.93;5.40;;;16.30;99.90;;;;;;5050803;28;20423;-70
2022/07/30 03:24:48;;;;;;;9.50;5.93;;;16.30;99.90;;;;;;5051142;28;20478;-71
2022/07/30 03:27:16;;;;;;;6.97;6.27;;;16.30;99.90;;;;;;5049975;28;20955;-71
2022/07/30 03:29:44;;;;;;;6.90;6.30;;;16.30;99.90;;;;;;5050868;28;20845;-70
2022/07/30 03:32:12;;;;;;;7.43;6.80;;;16.20;99.90;;;;;;5051227;28;20859;-70
2022/07/30 03:34:41;;;;;;;8.00;7.20;;;16.10;99.90;;;;;;5050337;28;20559;-70
2022/07/30 03:37:08;;;;;;;8.60;7.10;;;16.10;99.90;;;;;;5050020;28;20490;-70
2022/07/30 03:39:36;;;;;;;8.60;7.23;;;16.00;99.90;;;;;;5050156;28;20477;-70
2022/07/30 03:42:06;;;;;;;8.87;7.97;;;16.00;99.90;;;;;;5048954;28;20548;-71
2022/07/30 03:44:33;;;;;;;13.70;7.40;;;15.90;99.90;;;;;;5049514;28;20455;-70
2022/07/30 03:47:01;;;;;;;14.97;7.53;;;15.90;99.90;;;;;;5049115;28;20817;-70
2022/07/30 03:49:28;;;;;;;9.30;7.50;;;15.80;99.90;;;;;;5048274;28;20449;-70
2022/07/30 03:51:55;;;;;;;12.00;7.77;;;15.80;99.90;;;;;;5049536;28;20444;-70
2022/07/30 03:54:23;;;;;;;9.50;7.63;;;15.70;99.90;;;;;;5049784;28;20445;-71
2022/07/30 03:56:50;;;;;;;9.27;7.40;;;15.60;99.90;;;;;;5049397;28;20913;-71
2022/07/30 03:59:18;;;;;;;8.73;7.63;;;15.50;99.90;;;;;;5048255;28;20444;-70
2022/07/30 04:01:45;;;;;;;8.90;7.40;;;15.60;99.90;;;;;;5049126;28;20457;-70
2022/07/30 04:04:12;;;;;;;8.77;7.87;;;15.50;99.90;;;;;;5049373;28;20469;-70
2022/07/30 04:06:39;;;;;;;9.10;7.20;;;15.60;99.90;;;;;;5048940;28;20542;-70
2022/07/30 04:09:07;;;;;;;10.70;8.77;;;15.50;99.90;;;;;;5049718;28;20456;-70
2022/07/30 04:11:33;;;;;;;8.20;6.87;;;15.50;99.90;;;;;;5049012;28;21014;-76
2022/07/30 04:14:00;;;;;;;8.83;7.47;;;15.50;99.90;;;;;;5048159;28;20457;-76
2022/07/30 04:16:36;;;;;;;10.67;6.20;;;15.80;99.90;;;;;;5039183;28;20453;-76
2022/07/30 04:19:08;;;;;;;7.77;6.33;;;16.10;99.90;;;;;;5048256;28;20489;-76
2022/07/30 04:21:37;;;;;;;9.40;6.30;;;16.50;99.90;;;;;;5046518;28;20960;-76
2022/07/30 04:24:05;;;;;;;7.43;6.63;;;16.80;99.90;;;;;;5049020;28;20419;-76
2022/07/30 04:26:34;;;;;;;8.10;6.70;;;17.10;99.90;;;;;;5049144;28;20423;-76
2022/07/30 04:29:03;;;;;;;7.50;6.80;;;17.30;99.90;;;;;;5049541;28;20459;-75
2022/07/30 04:31:34;;;;;;;6.60;6.00;;;17.40;99.90;;;;;;5048399;28;20427;-76
2022/07/30 04:34:01;;;;;;;6.87;6.17;;;17.60;99.90;;;;;;5049671;28;20455;-76
2022/07/30 04:36:28;;;;;;;11.37;6.20;;;17.80;99.90;;;;;;5049385;28;20451;-76
2022/07/30 04:38:54;;;;;;;6.80;6.10;;;17.90;99.90;;;;;;5048359;28;20459;-76
2022/07/30 04:41:21;;;;;;;6.80;5.23;;;17.90;99.90;;;;;;5049362;28;20494;-76
2022/07/30 04:43:48;;;;;;;6.07;4.83;;;17.90;99.90;;;;;;5049140;28;20530;-76
2022/07/30 04:46:14;;;;;;;6.07;5.40;;;18.00;99.90;;;;;;5048609;28;20460;-76
2022/07/30 04:48:42;;;;;;;7.87;5.67;;;18.10;99.90;;;;;;5048599;28;20476;-76
2022/07/30 04:51:16;;;;;;;7.43;6.00;;;18.20;99.90;;;;;;5048714;28;20464;-76
2022/07/30 04:53:45;;;;;;;9.17;5.27;;;18.20;99.90;;;;;;5048630;28;20507;-76
2022/07/30 04:56:13;;;;;;;6.90;6.20;;;18.20;99.90;;;;;;5047563;28;20452;-76
2022/07/30 04:58:40;;;;;;;7.60;5.00;;;18.30;99.90;;;;;;5048502;28;20905;-75
2022/07/30 05:01:08;;;;;;;7.03;6.20;;;18.30;99.90;;;;;;5048512;28;20505;-76
2022/07/30 05:03:36;;;;;;;6.70;6.10;;;18.30;99.90;;;;;;5047887;28;20448;-75
2022/07/30 05:06:06;;;;;;;6.70;6.00;;;18.30;99.90;;;;;;5047831;28;20457;-75
2022/07/30 05:08:32;;;;;;;7.00;6.07;;;18.30;99.90;;;;;;5048738;28;20495;-76
2022/07/30 05:11:00;;;;;;;6.23;5.63;;;18.30;99.90;;;;;;5048695;28;20452;-77
2022/07/30 05:13:26;;;;;;;6.80;6.10;;;18.40;99.90;;;;;;5049105;28;20444;-76
2022/07/30 05:15:53;;;;;;;7.27;6.60;;;18.50;99.90;;;;;;5048627;28;20482;-76
2022/07/30 05:18:20;;;;;;;6.80;5.40;;;18.60;99.90;;;;;;5048250;28;20470;-76
2022/07/30 05:20:46;;;;;;;11.57;6.17;;;18.70;99.90;;;;;;5047676;28;20445;-77
2022/07/30 05:23:14;;;;;;;7.83;6.40;;;18.90;99.90;;;;;;5049550;28;20445;-76
2022/07/30 05:25:42;;;;;;;6.40;5.90;;;19.00;99.90;;;;;;5048582;28;20502;-76
2022/07/30 05:28:09;;;;;;;9.33;6.73;;;19.00;99.90;;;;;;5048387;28;20476;-78
2022/07/30 05:30:36;;;;;;;6.00;5.40;;;19.00;99.90;;;;;;5048557;28;20502;-77
2022/07/30 05:33:03;;;;;;;13.93;6.63;;;19.00;99.90;;;;;;5048173;28;21046;-76
2022/07/30 05:35:30;;;;;;;6.83;5.83;;;19.00;99.90;;;;;;5048315;28;20510;-76
2022/07/30 05:37:56;;;;;;;9.83;6.03;;;19.10;99.90;;;;;;5048852;28;20495;-76
2022/07/30 05:40:24;;;;;;;6.70;6.10;;;19.10;99.90;;;;;;5048456;28;20498;-76
2022/07/30 05:42:51;;;;;;;6.93;5.90;;;19.10;99.90;;;;;;5046734;28;20460;-77
2022/07/30 05:45:18;;;;;;;7.57;6.50;;;19.20;99.90;;;;;;5048114;28;21010;-77
2022/07/30 05:47:44;;;;;;;7.70;6.90;;;19.30;99.90;;;;;;5044688;28;20514;-77
2022/07/30 05:50:11;;;;;;;8.27;6.20;;;19.40;99.90;;;;;;5048479;28;20456;-76
2022/07/30 05:52:38;;;;;;;8.77;6.20;;;19.60;99.90;;;;;;5046909;28;20544;-77
2022/07/30 05:55:06;;;;;;;6.43;5.93;;;19.70;99.90;;;;;;5051983;28;20427;-76
2022/07/30 05:57:36;;;;;;;6.43;5.67;;;19.80;99.90;;;;;;5050239;28;20483;-77
2022/07/30 06:00:04;;;;;;;7.67;5.80;;;19.90;99.90;;;;;;5051153;28;20427;-76
2022/07/30 06:02:31;;;;;;;6.77;5.43;;;20.10;99.90;;;;;;5048479;28;20456;-76
2022/07/30 06:04:57;;;;;;;6.93;6.13;;;20.20;99.90;;;;;;5051428;28;20456;-76
2022/07/30 06:07:24;;;;;;;8.33;6.10;;;20.40;99.90;;;;;;5051758;28;20832;-76
2022/07/30 06:09:51;;;;;;;7.13;6.17;;;20.60;99.90;;;;;;5050856;28;20455;-76
2022/07/30 06:12:18;;;;;;;6.63;5.90;;;20.60;99.90;;;;;;5051654;28;20456;-76
2022/07/30 06:14:46;;;;;;;7.70;5.90;;;20.50;99.90;;;;;;5049901;28;20498;-76
2022/07/30 06:17:13;;;;;;;8.73;6.60;;;20.50;99.90;;;;;;5050579;28;20464;-76
2022/07/30 06:19:40;;;;;;;8.10;6.47;;;20.50;99.90;;;;;;5051517;28;20510;-76
2022/07/30 06:22:06;;;;;;;7.47;6.50;;;20.50;99.90;;;;;;5051375;28;20445;-76
2022/07/30 06:24:33;;;;;;;7.10;6.40;;;20.70;99.90;;;;;;5050868;28;20860;-76
2022/07/30 06:27:00;;;;;;;12.27;6.47;;;20.70;99.90;;;;;;5051432;28;20479;-76
2022/07/30 06:29:26;;;;;;;7.03;5.40;;;20.70;99.90;;;;;;5051531;28;20437;-76
2022/07/30 06:31:55;;;;;;;14.80;6.73;;;20.80;99.90;;;;;;5050989;28;20444;-76
2022/07/30 06:34:21;;;;;;;8.60;7.07;;;21.00;99.90;;;;;;5051296;28;20444;-76
2022/07/30 06:36:48;;;;;;;8.60;6.93;;;21.00;99.90;;;;;;5051049;28;20476;-77
2022/07/30 06:39:15;;;;;;;8.83;7.40;;;20.90;99.90;;;;;;5050601;28;20451;-77
2022/07/30 06:41:42;;;;;;;7.63;6.83;;;20.80;99.90;;;;;;5050922;28;20506;-77
2022/07/30 06:44:08;;;;;;;12.23;6.90;;;20.80;99.90;;;;;;5051460;28;20515;-77
2022/07/30 06:46:35;;;;;;;8.60;5.93;;;20.80;99.90;;;;;;5049686;28;20448;-77
2022/07/30 06:49:03;;;;;;;12.33;6.20;;;20.90;99.90;;;;;;5050105;28;20975;-77
2022/07/30 06:51:30;;;;;;;14.70;7.20;;;21.20;99.90;;;;;;5051268;28;20457;-76
2022/07/30 06:53:57;;;;;;;9.23;6.30;;;21.50;99.90;;;;;;5050333;28;21030;-78
2022/07/30 06:56:23;;;;;;;8.27;6.47;;;21.80;99.90;;;;;;5047650;28;20452;-78
2022/07/30 06:58:50;;;;;;;7.70;6.63;;;22.00;99.90;;;;;;5051415;28;20484;-74
2022/07/30 07:01:17;;;;;;;10.77;6.23;;;22.30;99.90;;;;;;5050973;28;20452;-74
2022/07/30 07:03:43;;;;;;;8.80;6.00;;;22.50;99.90;;;;;;5050155;28;20449;-75
2022/07/30 07:06:11;;;;;;;16.33;7.00;;;22.70;99.90;;;;;;5050649;28;20452;-75
2022/07/30 07:08:38;;;;;;;12.60;6.37;;;22.90;99.90;;;;;;5048708;28;20758;-75
2022/07/30 07:11:05;;;;;;;7.60;6.33;;;23.10;99.90;;;;;;5050462;28;20498;-75
2022/07/30 07:13:31;;;;;;;10.70;6.30;;;23.20;99.90;;;;;;5050581;28;20478;-75
2022/07/30 07:15:58;;;;;;;9.20;5.53;;;23.30;99.90;;;;;;5050616;28;20456;-75
2022/07/30 07:18:25;;;;;;;7.83;6.80;;;23.50;99.90;;;;;;5050016;28;20885;-75
2022/07/30 07:20:51;;;;;;;11.33;6.73;;;23.80;99.90;;;;;;5050986;28;20540;-75
2022/07/30 07:23:19;;;;;;;10.13;7.50;;;23.90;99.90;;;;;;5051798;28;21014;-75
2022/07/30 07:25:47;;;;;;;10.30;6.90;;;24.10;99.90;;;;;;5049307;28;20452;-75
2022/07/30 07:28:13;;;;;;;9.90;6.50;;;24.20;99.90;;;;;;5051450;28;21059;-74
2022/07/30 07:30:40;;;;;;;14.50;7.03;;;24.30;99.90;;;;;;5051451;28;20457;-75
2022/07/30 07:33:07;;;;;;;10.17;6.67;;;24.30;99.90;;;;;;5051591;28;20531;-74
2022/07/30 07:35:34;;;;;;;13.50;7.67;;;24.50;99.90;;;;;;5051219;28;20448;-74
2022/07/30 07:38:01;;;;;;;7.47;6.63;;;24.60;99.90;;;;;;5051049;28;20934;-74
2022/07/30 07:40:29;;;;;;;8.93;6.40;;;24.60;99.90;;;;;;5051129;28;20444;-75
2022/07/30 07:42:55;;;;;;;14.90;6.70;;;24.60;99.90;;;;;;5051085;28;20445;-74
2022/07/30 07:45:22;;;;;;;10.33;6.60;;;24.70;99.90;;;;;;5049973;28;20456;-74
2022/07/30 07:47:49;;;;;;;14.87;7.10;;;24.80;99.90;;;;;;5051273;28;20541;-75
2022/07/30 07:50:18;;;;;;;11.47;6.93;;;24.80;99.90;;;;;;5049962;28;20456;-75
2022/07/30 07:52:45;;;;;;;8.23;6.07;;;24.80;99.90;;;;;;5050922;28;20460;-74
2022/07/30 07:55:11;;;;;;;14.00;6.30;;;24.70;99.90;;;;;;5050807;28;20444;-75
2022/07/30 07:57:40;;;;;;;9.13;6.33;;;24.80;99.90;;;;;;5050838;28;20530;-75
2022/07/30 08:00:08;;;;;;;12.10;6.17;;;24.90;99.90;;;;;;5049560;28;20851;-74
2022/07/30 08:02:36;;;;;;;10.80;6.27;;;25.00;99.90;;;;;;5049890;28;20455;-74
2022/07/30 08:05:04;;;;;;;13.20;5.67;;;25.00;99.90;;;;;;5050664;28;20452;-75
2022/07/30 08:07:31;;;;;;;8.10;5.60;;;25.10;99.90;;;;;;5050312;28;20500;-74
2022/07/30 08:09:57;;;;;;;8.50;5.77;;;25.10;99.90;;;;;;5050750;28;20861;-74
2022/07/30 08:12:24;;;;;;;12.33;6.07;;;25.20;99.90;;;;;;5050401;28;20445;-74
2022/07/30 08:14:52;;;;;;;7.73;5.43;;;25.40;99.90;;;;;;5050312;28;20494;-74
2022/07/30 08:17:19;;;;;;;10.23;5.20;;;25.60;99.90;;;;;;5049706;28;20898;-74
2022/07/30 08:19:46;;;;;;;8.90;5.20;;;25.80;99.90;;;;;;5046933;28;20492;-74
2022/07/30 08:22:13;;;;;;;12.37;5.37;;;25.80;99.90;;;;;;5050274;28;20444;-74
2022/07/30 08:24:39;;;;;;;14.10;5.50;;;25.90;99.90;;;;;;5050209;28;20464;-74
2022/07/30 08:27:06;;;;;;;10.50;4.90;;;26.10;99.90;;;;;;5049867;28;20526;-73
2022/07/30 08:29:33;;;;;;;8.77;5.43;;;26.30;99.90;;;;;;5050454;28;20506;-74
2022/07/30 08:32:01;;;;;;;7.67;4.90;;;26.50;99.90;;;;;;5050649;28;20510;-74
2022/07/30 08:34:28;;;;;;;9.40;4.83;;;26.70;99.90;;;;;;5050035;28;20826;-74
2022/07/30 08:36:55;;;;;;;13.40;5.17;;;26.80;99.90;;;;;;5049311;28;20563;-74
2022/07/30 08:39:21;;;;;;;8.13;4.93;;;27.00;99.90;;;;;;5049738;28;20484;-74
2022/07/30 08:41:49;;;;;;;8.83;5.20;;;27.10;99.90;;;;;;5050863;28;20449;-74
2022/07/30 08:44:18;;;;;;;17.13;5.43;;;27.10;99.90;;;;;;5050007;28;20451;-74
2022/07/30 08:46:46;;;;;;;7.07;4.73;;;27.10;99.90;;;;;;5049861;28;21067;-74
2022/07/30 08:49:15;;;;;;;6.07;4.70;;;27.10;99.90;;;;;;5049686;28;20476;-74
2022/07/30 08:51:42;;;;;;;10.80;4.43;;;27.10;99.90;;;;;;5050130;28;20449;-74
2022/07/30 08:54:09;;;;;;;7.17;4.23;;;27.10;99.90;;;;;;5049740;28;20468;-74
2022/07/30 08:56:36;;;;;;;10.80;4.50;;;27.20;99.90;;;;;;5049693;28;20803;-74
2022/07/30 08:59:03;;;;;;;7.70;4.40;;;27.40;99.90;;;;;;5050251;28;20897;-74
2022/07/30 09:01:30;;;;;;;7.97;4.50;;;27.30;99.90;;;;;;5049422;28;20952;-74
2022/07/30 09:03:57;;;;;;;13.80;4.47;;;27.40;99.90;;;;;;5049983;28;20448;-74
2022/07/30 09:06:25;;;;;;;10.57;4.23;;;27.50;99.90;;;;;;5049410;28;20444;-74
2022/07/30 09:08:51;;;;;;;6.87;3.50;;;27.60;99.90;;;;;;5050026;28;20494;-74
2022/07/30 09:11:18;;;;;;;8.53;3.73;;;27.80;99.90;;;;;;5050196;28;20498;-74
2022/07/30 09:13:45;;;;;;;10.03;3.60;;;28.00;99.90;;;;;;5050465;28;20448;-74
2022/07/30 09:16:20;;;;;;;4.90;3.53;;;28.00;99.90;;;;;;5049040;28;20475;-74
2022/07/30 09:18:48;;;;;;;6.43;3.90;;;28.00;99.90;;;;;;5050178;28;21013;-74
2022/07/30 09:21:16;;;;;;;10.73;3.87;;;28.10;99.90;;;;;;5046424;28;20448;-74
2022/07/30 09:23:57;;;;;;;5.03;3.57;;;28.00;99.90;;;;;;5046361;28;20449;-74
2022/07/30 09:26:24;;;;;;;8.87;4.00;;;27.70;99.90;;;;;;5051155;28;20444;-74
2022/07/30 09:28:51;;;;;;;10.40;4.40;;;27.80;99.90;;;;;;5053469;28;20993;-74
2022/07/30 09:31:19;;;;;;;6.27;4.07;;;28.10;99.90;;;;;;5054276;28;20521;-74
2022/07/30 09:33:46;;;;;;;12.00;3.70;;;28.40;99.90;;;;;;5051256;28;21102;-74
2022/07/30 09:36:15;;;;;;;17.00;4.83;;;28.80;99.90;;;;;;5053824;28;20494;-74
2022/07/30 09:38:44;;;;;;;15.43;10.40;;;29.10;99.90;;;;;;5053781;28;20542;-74
2022/07/30 09:41:12;;;;;;;14.00;6.77;;;29.20;99.90;;;;;;5053704;28;20448;-74
2022/07/30 09:43:43;;;;;;;5.73;3.50;;;29.10;99.90;;;;;;5053119;28;20579;-74
2022/07/30 09:46:10;;;;;;;8.50;4.10;;;29.30;99.90;;;;;;5052880;28;21163;-74
2022/07/30 09:48:37;;;;;;;34.70;20.73;;;29.50;99.90;;;;;;5053113;28;21000;-74
2022/07/30 09:51:03;;;;;;;37.30;20.33;;;29.30;99.90;;;;;;5053610;28;20448;-74
2022/07/30 09:53:31;;;;;;;42.17;24.80;;;29.00;99.90;;;;;;5053045;28;20522;-74
2022/07/30 09:55:59;;;;;;;36.93;20.13;;;28.50;99.90;;;;;;5052724;28;20971;-74
2022/07/30 09:58:38;;;;;;;17.23;9.80;;;28.00;99.90;;;;;;5052716;28;20878;-75
2022/07/30 10:01:04;;;;;;;13.80;6.77;;;27.60;99.90;;;;;;5052926;28;20455;-74
2022/07/30 10:03:31;;;;;;;15.50;7.17;;;27.40;99.90;;;;;;5053337;28;20449;-74
2022/07/30 10:05:59;;;;;;;26.53;13.27;;;27.20;99.90;;;;;;5052253;28;20490;-74
2022/07/30 10:08:39;;;;;;;12.57;6.37;;;27.10;99.90;;;;;;5053150;28;20464;-75
2022/07/30 10:11:06;;;;;;;9.53;5.30;;;26.90;99.90;;;;;;5052815;28;20460;-74
2022/07/30 10:13:36;;;;;;;7.40;5.00;;;26.60;99.90;;;;;;5052955;28;20453;-74
2022/07/30 10:16:03;;;;;;;11.77;4.67;;;26.50;99.90;;;;;;5051393;28;20522;-74
2022/07/30 10:18:30;;;;;;;9.03;4.10;;;26.20;99.90;;;;;;5052583;28;20472;-75
2022/07/30 10:20:59;;;;;;;5.70;4.30;;;25.90;99.90;;;;;;5052553;28;20456;-74
2022/07/30 10:23:28;;;;;;;7.53;4.47;;;25.80;99.90;;;;;;5052846;28;20456;-74
2022/07/30 10:25:55;;;;;;;8.50;4.30;;;25.70;99.90;;;;;;5052224;28;20539;-74
2022/07/30 10:28:23;;;;;;;6.70;4.30;;;25.60;99.90;;;;;;5052824;28;20465;-74
2022/07/30 10:30:51;;;;;;;7.73;4.50;;;25.50;99.90;;;;;;5052133;28;20491;-74
2022/07/30 10:33:18;;;;;;;5.90;4.30;;;25.40;99.90;;;;;;5049635;28;20452;-74
2022/07/30 10:35:45;;;;;;;5.30;4.17;;;25.30;99.90;;;;;;5051550;28;20549;-74
2022/07/30 10:38:14;;;;;;;26.43;5.73;;;25.10;99.90;;;;;;5051918;28;20996;-74
2022/07/30 10:40:47;;;;;;;8.70;4.37;;;25.00;99.90;;;;;;5052463;28;20522;-74
2022/07/30 10:43:45;;;;;;;10.67;5.17;;;24.90;99.90;;;;;;5051985;28;20498;-74
2022/07/30 10:46:23;;;;;;;9.83;5.10;;;25.20;99.90;;;;;;5052177;28;20449;-74
2022/07/30 10:48:50;;;;;;;5.53;4.97;;;25.70;99.90;;;;;;5051752;28;20795;-73
2022/07/30 10:51:17;;;;;;;11.40;5.57;;;26.10;99.90;;;;;;5052662;28;20490;-73
2022/07/30 10:53:46;;;;;;;6.40;4.83;;;26.30;99.90;;;;;;5051985;28;20460;-73
2022/07/30 10:56:17;;;;;;;7.23;4.90;;;26.40;99.90;;;;;;5051787;28;20536;-74
2022/07/30 10:59:08;;;;;;;7.97;5.30;;;26.40;99.90;;;;;;5051655;28;20472;-73
2022/07/30 11:02:10;;;;;;;8.47;5.50;;;26.70;99.90;;;;;;5045984;28;20506;-73
2022/07/30 11:04:36;;;;;;;10.23;5.50;;;26.80;99.90;;;;;;5051103;28;20451;-74
2022/07/30 11:07:28;;;;;;;11.87;5.10;;;26.90;99.90;;;;;;5051649;28;20491;-73
2022/07/30 11:09:56;;;;;;;8.20;4.63;;;26.90;99.90;;;;;;5049006;28;20459;-74
2022/07/30 11:12:52;;;;;;;10.33;5.90;;;27.00;99.90;;;;;;5051699;28;21018;-74
2022/07/30 11:15:20;;;;;;;14.00;5.87;;;26.80;99.90;;;;;;5052280;28;20452;-74
2022/07/30 11:18:07;;;;;;;7.67;5.97;;;26.60;99.90;;;;;;5049025;28;21083;-72
2022/07/30 11:20:35;;;;;;;11.90;7.03;;;26.90;99.90;;;;;;5049891;28;20480;-72
2022/07/30 11:23:41;;;;;;;10.23;5.80;;;27.40;99.90;;;;;;5051713;28;20444;-72
2022/07/30 11:26:09;;;;;;;9.63;6.83;;;27.90;99.90;;;;;;5029961;28;20463;-72
2022/07/30 11:28:41;;;;;;;8.80;6.30;;;28.40;99.90;;;;;;5051253;28;20464;-72
2022/07/30 11:31:30;;;;;;;10.00;6.80;;;28.60;99.90;;;;;;5051580;28;20436;-73
2022/07/30 11:34:27;;;;;;;11.43;6.20;;;28.30;99.90;;;;;;5049017;28;20510;-72
2022/07/30 11:37:13;;;;;;;12.33;7.00;;;28.10;99.90;;;;;;5048768;28;20530;-72
2022/07/30 11:40:09;;;;;;;10.43;7.73;;;28.30;99.90;;;;;;5051620;28;20561;-72
2022/07/30 11:42:37;;;;;;;8.63;7.00;;;28.50;99.90;;;;;;5050043;28;20456;-72
2022/07/30 11:45:31;;;;;;;7.87;6.40;;;28.90;99.90;;;;;;5049915;28;20507;-72
2022/07/30 11:48:02;;;;;;;19.90;7.47;;;29.10;99.90;;;;;;5046554;28;20995;-73
2022/07/30 11:50:32;;;;;;;9.50;7.23;;;29.40;99.90;;;;;;5048751;28;20453;-73
2022/07/30 11:53:01;;;;;;;12.20;6.60;;;29.40;99.90;;;;;;5049224;28;20876;-73
2022/07/30 11:55:31;;;;;;;8.13;5.97;;;29.50;99.90;;;;;;5049113;28;20509;-73
2022/07/30 11:57:59;;;;;;;7.73;6.93;;;29.70;99.90;;;;;;5048901;28;20880;-73
2022/07/30 12:00:34;;;;;;;9.03;8.00;;;29.60;99.90;;;;;;5048246;28;20538;-74
2022/07/30 12:03:06;;;;;;;9.20;6.37;;;28.90;99.40;;;;;;5049425;28;20513;-73
2022/07/30 12:05:34;;;;;;;13.30;6.67;;;28.20;99.90;;;;;;5049192;28;20456;-73
2022/07/30 12:08:01;;;;;;;9.33;7.23;;;27.90;99.90;;;;;;5048967;28;20476;-73
2022/07/30 12:10:28;;;;;;;11.00;6.20;;;28.00;99.90;;;;;;5048546;28;20470;-73
2022/07/30 12:13:07;;;;;;;9.33;7.63;;;27.90;99.90;;;;;;5049084;28;20535;-73
2022/07/30 12:15:36;;;;;;;13.00;8.00;;;27.90;99.90;;;;;;5049202;28;20450;-73
2022/07/30 12:18:03;;;;;;;9.60;7.40;;;27.60;99.90;;;;;;5049776;28;20547;-72
2022/07/30 12:20:30;;;;;;;10.10;6.73;;;27.60;99.90;;;;;;5049564;28;20476;-72
2022/07/30 12:22:58;;;;;;;10.37;6.77;;;27.80;99.90;;;;;;5047425;28;20506;-72
2022/07/30 12:25:25;;;;;;;8.40;6.57;;;28.00;99.90;;;;;;5049105;28;20449;-72
2022/07/30 12:27:52;;;;;;;10.47;5.50;;;28.40;99.90;;;;;;5049947;28;20906;-72
2022/07/30 12:30:20;;;;;;;8.07;5.80;;;28.70;99.90;;;;;;5048655;28;20486;-72
2022/07/30 12:32:47;;;;;;;8.80;6.23;;;29.20;99.70;;;;;;5046897;28;20506;-72
2022/07/30 12:35:14;;;;;;;8.17;6.47;;;29.10;98.20;;;;;;5049946;28;20452;-72
2022/07/30 12:38:01;;;;;;;6.90;5.80;;;29.30;98.90;;;;;;5049715;28;20465;-71
2022/07/30 12:40:29;;;;;;;7.47;6.00;;;29.50;97.80;;;;;;5048625;28;20526;-71
2022/07/30 12:42:55;;;;;;;6.47;5.83;;;29.80;97.90;;;;;;5049253;28;20944;-72
2022/07/30 12:45:27;;;;;;;7.83;5.30;;;29.90;97.60;;;;;;5049514;28;20531;-72
2022/07/30 12:47:54;;;;;;;6.50;5.30;;;29.70;98.50;;;;;;5049567;28;20467;-71
2022/07/30 12:50:21;;;;;;;18.10;5.60;;;29.70;98.10;;;;;;5049673;28;21011;-71
2022/07/30 12:52:50;;;;;;;9.97;4.87;;;30.00;96.90;;;;;;5050168;28;20471;-71